Terminal Aerodrome Forecast
Issued by NWS

Home | Current Version | Previous Version | Text Only | Print | Product List | Glossary On
Versions: 1 2 3 4 5 6 7 8 9 10 11 12
000
FTUS42 TJSJ 152320
TAFJMZ
TAF
TJMZ 152320Z 1600/1624 10008KT P6SM FEW025
     FM161430 09012KT P6SM SCT025 BKN040
     FM162200 07007KT P6SM FEW040
      AMD NOT SKED=

USA.gov is the U.S. government's official web portal to all federal, state and local government web resources and services.